Rokkomaru — JD3738 — position and weather

sailwx.info

Track history (hours):
 
Tides and Currents Weather Stations Pressure Air Temp Water Temp Dewpoint Dewpoint Depression Visibility Wind Speed Wind Dir Waves Ship Positions

Rokkomaru

Last reported at 2018-Jun-18 23:38 UTC. Time now 2018-Jun-20 19:21 UTC.
Position N 34°41' E 135°12'.

Length 33 m; draft 4.3 m.

Type: Tug. MMSI: 431005792.

Date/timePositionNaut miles runAvg speedWind from/ knotsBaromVisibWave heightAir tempDewpointWater temp
2018-Jun-18 23:38N 34°41' E 135°12'1 4.5
2018-Jun-18 23:29N 34°41' E 135°13'2 4.4
2018-Jun-18 23:00N 34°42' E 135°15'1 2.2
2018-Jun-18 22:30N 34°41' E 135°15'1 1.2
2018-Jun-18 22:00N 34°40' E 135°15'0 0.2
2018-Jun-18 21:30N 34°40' E 135°15'1 1.6
2018-Jun-18 21:01N 34°41' E 135°15'2 3.4
2018-Jun-18 20:31N 34°40' E 135°13'0 0.1
2018-Jun-18 19:59N 34°40' E 135°13'0 0.1
2018-Jun-18 19:30N 34°40' E 135°13'0 0.0
2018-Jun-18 18:56N 34°40' E 135°13'0 0.1
2018-Jun-18 18:30N 34°40' E 135°13'0 0.0
2018-Jun-18 17:59N 34°40' E 135°13'0 0.0
2018-Jun-18 17:30N 34°40' E 135°13'0 0.0
2018-Jun-18 17:00N 34°40' E 135°13'0 0.0
2018-Jun-18 16:30N 34°40' E 135°13'1 1.6
2018-Jun-18 16:00N 34°40' E 135°14'2 3.9
2018-Jun-18 15:30N 34°38' E 135°16'3 6.1
2018-Jun-18 15:00N 34°40' E 135°13'0 0.0
2018-Jun-18 14:29N 34°40' E 135°13'0 0.0
2018-Jun-18 14:00N 34°40' E 135°13'0 0.0
2018-Jun-18 13:30N 34°40' E 135°13'0 0.0
2018-Jun-18 12:58N 34°40' E 135°13'0 0.0
2018-Jun-18 12:30N 34°40' E 135°13'0 0.0
2018-Jun-18 12:00N 34°40' E 135°13'0 0.0
2018-Jun-18 11:30N 34°40' E 135°13'0 0.0
2018-Jun-18 11:00N 34°40' E 135°13'0 0.0
2018-Jun-18 10:30N 34°40' E 135°13'0 0.0
2018-Jun-18 10:00N 34°40' E 135°13'0 0.0
2018-Jun-18 09:30N 34°40' E 135°13'2 3.0
2018-Jun-18 09:00N 34°39' E 135°14'0 0.4
2018-Jun-18 08:30N 34°39' E 135°15'3 6.3
2018-Jun-18 08:00N 34°42' E 135°17'0 0.1
2018-Jun-18 07:30N 34°42' E 135°17'4 8.1
2018-Jun-18 07:00N 34°41' E 135°12'0 0.0
2018-Jun-18 06:28N 34°41' E 135°12'0 0.0
2018-Jun-18 06:00N 34°41' E 135°12'0 0.1
2018-Jun-18 05:30N 34°41' E 135°12'3 6.0
2018-Jun-18 05:00N 34°39' E 135°15'3 6.3
2018-Jun-18 04:30N 34°41' E 135°12'0 0.0
2018-Jun-17 23:33N 34°41' E 135°12'0 3.3
2018-Jun-17 23:30N 34°40' E 135°12'510.0
2018-Jun-17 23:00N 34°42' E 135°18'0 0.0
2018-Jun-17 22:30N 34°42' E 135°18'1 3.0
2018-Jun-17 22:00N 34°41' E 135°18'3 5.8
2018-Jun-17 21:30N 34°41' E 135°15'2 0.1
2018-Jun-17 07:12N 34°41' E 135°12'1 5.3
2018-Jun-17 07:00N 34°41' E 135°13'612.2
2018-Jun-17 06:30N 34°40' E 135°21'3 5.9
2018-Jun-17 06:00N 34°39' E 135°24'1 2.8
2018-Jun-17 05:30N 34°38' E 135°23'3 5.2
2018-Jun-17 05:00N 34°39' E 135°20'510.7
2018-Jun-17 04:30N 34°41' E 135°14'1 0.1
2018-Jun-16 09:50N 34°41' E 135°12'2 6.6
2018-Jun-16 09:30N 34°39' E 135°14'612.5
2018-Jun-16 09:00N 34°36' E 135°20'5 9.6
2018-Jun-16 08:29N 34°33' E 135°25'0 0.5
2018-Jun-16 07:45N 34°32' E 135°25'1 3.7
2018-Jun-16 07:28N 34°33' E 135°24'510.9
2018-Jun-16 07:01N 34°36' E 135°19'612.6
2018-Jun-16 06:30N 34°39' E 135°13'2 0.0
2018-Jun-14 04:02N 34°41' E 135°12'0 0.0
2018-Jun-14 04:01N 34°41' E 135°12'510.9
2018-Jun-14 03:30N 34°37' E 135°07'914.2
2018-Jun-14 02:53N 34°37' E 134°56'615.0
2018-Jun-14 02:30N 34°38' E 134°49'713.4
2018-Jun-14 01:58N 34°40' E 134°41'6 1.4
2018-Jun-13 21:46N 34°39' E 134°48'412.7
2018-Jun-13 21:28N 34°38' E 134°53'713.3
2018-Jun-13 20:56N 34°37' E 135°01'512.0
2018-Jun-13 20:30N 34°38' E 135°07'5 9.8
2018-Jun-13 20:00N 34°41' E 135°12'0 0.0
2018-Jun-13 09:50N 34°41' E 135°12'3 9.7
2018-Jun-13 09:30N 34°38' E 135°10'612.3
2018-Jun-13 09:00N 34°36' E 135°03'2 1.2
2018-Jun-13 07:27N 34°37' E 135°02'613.2
2018-Jun-13 07:00N 34°38' E 135°09'4 0.6
2018-Jun-13 00:19N 34°41' E 135°12'3 8.9
2018-Jun-13 00:01N 34°38' E 135°10'612.0
2018-Jun-12 23:30N 34°37' E 135°03'5 9.8
2018-Jun-12 22:59N 34°38' E 134°57'2 3.8
2018-Jun-12 22:29N 34°38' E 134°60'510.5
2018-Jun-12 22:00N 34°35' E 135°05'2 4.0
2018-Jun-12 21:30N 34°34' E 135°07'611.8
2018-Jun-12 21:00N 34°39' E 135°11'2 0.1
2018-Jun-12 05:54N 34°41' E 135°12'410.6
2018-Jun-12 05:30N 34°38' E 135°08'613.0
2018-Jun-12 05:01N 34°37' E 135°01'815.3
2018-Jun-12 04:29N 34°38' E 134°51'1215.2
2018-Jun-12 03:43N 34°41' E 134°37'0 0.2
2018-Jun-12 00:28N 34°41' E 134°37'713.3
2018-Jun-11 23:54N 34°39' E 134°45'612.8
2018-Jun-11 23:26N 34°38' E 134°52'713.4
2018-Jun-11 22:54N 34°37' E 135°01'513.0
2018-Jun-11 22:30N 34°37' E 135°07'510.6
2018-Jun-11 22:00N 34°41' E 135°12'0 0.0
2018-Jun-10 02:17N 34°41' E 135°12'2 6.5
2018-Jun-10 02:00N 34°39' E 135°13'611.7
2018-Jun-10 01:30N 34°36' E 135°19'510.4
2018-Jun-10 00:59N 34°33' E 135°25'1 1.6
2018-Jun-10 00:26N 34°33' E 135°26'0 0.2
2018-Jun-09 23:59N 34°33' E 135°26'1 2.5
2018-Jun-09 23:25N 34°33' E 135°24'512.4
2018-Jun-09 23:00N 34°36' E 135°19'612.3
2018-Jun-09 22:30N 34°39' E 135°12'1 0.1
2018-Jun-09 08:21N 34°41' E 135°12'3 8.1
2018-Jun-09 08:01N 34°41' E 135°15'0 0.9
2018-Jun-09 07:30N 34°41' E 135°16'3 6.1
2018-Jun-09 07:00N 34°41' E 135°12'0 0.0
2018-Jun-09 01:57N 34°41' E 135°12'1 1.8
2018-Jun-09 01:30N 34°40' E 135°12'0 0.4
2018-Jun-09 01:00N 34°40' E 135°12'  
Track history (hours):
 
Tides and Currents Weather Stations Pressure Air Temp Water Temp Dewpoint Dewpoint Depression Visibility Wind Speed Wind Dir Waves Ship Positions

Rokkomaru

Last reported at 2018-Jun-18 23:38 UTC. Time now 2018-Jun-20 19:21 UTC.
Position N 34°41' E 135°12'.

Length 33 m; draft 4.3 m.

Type: Tug. MMSI: 431005792.

Date/timePositionNaut miles runAvg speedWind from/ knotsBaromVisibWave heightAir tempDewpointWater temp
2018-Jun-18 23:38N 34°41' E 135°12'1 4.5
2018-Jun-18 23:29N 34°41' E 135°13'2 4.4
2018-Jun-18 23:00N 34°42' E 135°15'1 2.2
2018-Jun-18 22:30N 34°41' E 135°15'1 1.2
2018-Jun-18 22:00N 34°40' E 135°15'0 0.2
2018-Jun-18 21:30N 34°40' E 135°15'1 1.6
2018-Jun-18 21:01N 34°41' E 135°15'2 3.4
2018-Jun-18 20:31N 34°40' E 135°13'0 0.1
2018-Jun-18 19:59N 34°40' E 135°13'0 0.1
2018-Jun-18 19:30N 34°40' E 135°13'0 0.0
2018-Jun-18 18:56N 34°40' E 135°13'0 0.1
2018-Jun-18 18:30N 34°40' E 135°13'0 0.0
2018-Jun-18 17:59N 34°40' E 135°13'0 0.0
2018-Jun-18 17:30N 34°40' E 135°13'0 0.0
2018-Jun-18 17:00N 34°40' E 135°13'0 0.0
2018-Jun-18 16:30N 34°40' E 135°13'1 1.6
2018-Jun-18 16:00N 34°40' E 135°14'2 3.9
2018-Jun-18 15:30N 34°38' E 135°16'3 6.1
2018-Jun-18 15:00N 34°40' E 135°13'0 0.0
2018-Jun-18 14:29N 34°40' E 135°13'0 0.0
2018-Jun-18 14:00N 34°40' E 135°13'0 0.0
2018-Jun-18 13:30N 34°40' E 135°13'0 0.0
2018-Jun-18 12:58N 34°40' E 135°13'0 0.0
2018-Jun-18 12:30N 34°40' E 135°13'0 0.0
2018-Jun-18 12:00N 34°40' E 135°13'0 0.0
2018-Jun-18 11:30N 34°40' E 135°13'0 0.0
2018-Jun-18 11:00N 34°40' E 135°13'0 0.0
2018-Jun-18 10:30N 34°40' E 135°13'0 0.0
2018-Jun-18 10:00N 34°40' E 135°13'0 0.0
2018-Jun-18 09:30N 34°40' E 135°13'2 3.0
2018-Jun-18 09:00N 34°39' E 135°14'0 0.4
2018-Jun-18 08:30N 34°39' E 135°15'3 6.3
2018-Jun-18 08:00N 34°42' E 135°17'0 0.1
2018-Jun-18 07:30N 34°42' E 135°17'4 8.1
2018-Jun-18 07:00N 34°41' E 135°12'0 0.0
2018-Jun-18 06:28N 34°41' E 135°12'0 0.0
2018-Jun-18 06:00N 34°41' E 135°12'0 0.1
2018-Jun-18 05:30N 34°41' E 135°12'3 6.0
2018-Jun-18 05:00N 34°39' E 135°15'3 6.3
2018-Jun-18 04:30N 34°41' E 135°12'0 0.0
2018-Jun-17 23:33N 34°41' E 135°12'0 3.3
2018-Jun-17 23:30N 34°40' E 135°12'510.0
2018-Jun-17 23:00N 34°42' E 135°18'0 0.0
2018-Jun-17 22:30N 34°42' E 135°18'1 3.0
2018-Jun-17 22:00N 34°41' E 135°18'3 5.8
2018-Jun-17 21:30N 34°41' E 135°15'2 0.1
2018-Jun-17 07:12N 34°41' E 135°12'1 5.3
2018-Jun-17 07:00N 34°41' E 135°13'612.2
2018-Jun-17 06:30N 34°40' E 135°21'3 5.9
2018-Jun-17 06:00N 34°39' E 135°24'1 2.8
2018-Jun-17 05:30N 34°38' E 135°23'3 5.2
2018-Jun-17 05:00N 34°39' E 135°20'510.7
2018-Jun-17 04:30N 34°41' E 135°14'1 0.1
2018-Jun-16 09:50N 34°41' E 135°12'2 6.6
2018-Jun-16 09:30N 34°39' E 135°14'612.5
2018-Jun-16 09:00N 34°36' E 135°20'5 9.6
2018-Jun-16 08:29N 34°33' E 135°25'0 0.5
2018-Jun-16 07:45N 34°32' E 135°25'1 3.7
2018-Jun-16 07:28N 34°33' E 135°24'510.9
2018-Jun-16 07:01N 34°36' E 135°19'612.6
2018-Jun-16 06:30N 34°39' E 135°13'2 0.0
2018-Jun-14 04:02N 34°41' E 135°12'0 0.0
2018-Jun-14 04:01N 34°41' E 135°12'510.9
2018-Jun-14 03:30N 34°37' E 135°07'914.2
2018-Jun-14 02:53N 34°37' E 134°56'615.0
2018-Jun-14 02:30N 34°38' E 134°49'713.4
2018-Jun-14 01:58N 34°40' E 134°41'6 1.4
2018-Jun-13 21:46N 34°39' E 134°48'412.7
2018-Jun-13 21:28N 34°38' E 134°53'713.3
2018-Jun-13 20:56N 34°37' E 135°01'512.0
2018-Jun-13 20:30N 34°38' E 135°07'5 9.8
2018-Jun-13 20:00N 34°41' E 135°12'0 0.0
2018-Jun-13 09:50N 34°41' E 135°12'3 9.7
2018-Jun-13 09:30N 34°38' E 135°10'612.3
2018-Jun-13 09:00N 34°36' E 135°03'2 1.2
2018-Jun-13 07:27N 34°37' E 135°02'613.2
2018-Jun-13 07:00N 34°38' E 135°09'4 0.6
2018-Jun-13 00:19N 34°41' E 135°12'3 8.9
2018-Jun-13 00:01N 34°38' E 135°10'612.0
2018-Jun-12 23:30N 34°37' E 135°03'5 9.8
2018-Jun-12 22:59N 34°38' E 134°57'2 3.8
2018-Jun-12 22:29N 34°38' E 134°60'510.5
2018-Jun-12 22:00N 34°35' E 135°05'2 4.0
2018-Jun-12 21:30N 34°34' E 135°07'611.8
2018-Jun-12 21:00N 34°39' E 135°11'2 0.1
2018-Jun-12 05:54N 34°41' E 135°12'410.6
2018-Jun-12 05:30N 34°38' E 135°08'613.0
2018-Jun-12 05:01N 34°37' E 135°01'815.3
2018-Jun-12 04:29N 34°38' E 134°51'1215.2
2018-Jun-12 03:43N 34°41' E 134°37'0 0.2
2018-Jun-12 00:28N 34°41' E 134°37'713.3
2018-Jun-11 23:54N 34°39' E 134°45'612.8
2018-Jun-11 23:26N 34°38' E 134°52'713.4
2018-Jun-11 22:54N 34°37' E 135°01'513.0
2018-Jun-11 22:30N 34°37' E 135°07'510.6
2018-Jun-11 22:00N 34°41' E 135°12'0 0.0
2018-Jun-10 02:17N 34°41' E 135°12'2 6.5
2018-Jun-10 02:00N 34°39' E 135°13'611.7
2018-Jun-10 01:30N 34°36' E 135°19'510.4
2018-Jun-10 00:59N 34°33' E 135°25'1 1.6
2018-Jun-10 00:26N 34°33' E 135°26'0 0.2
2018-Jun-09 23:59N 34°33' E 135°26'1 2.5
2018-Jun-09 23:25N 34°33' E 135°24'512.4
2018-Jun-09 23:00N 34°36' E 135°19'612.3
2018-Jun-09 22:30N 34°39' E 135°12'1 0.1
2018-Jun-09 08:21N 34°41' E 135°12'3 8.1
2018-Jun-09 08:01N 34°41' E 135°15'0 0.9
2018-Jun-09 07:30N 34°41' E 135°16'3 6.1
2018-Jun-09 07:00N 34°41' E 135°12'0 0.0
2018-Jun-09 01:57N 34°41' E 135°12'1 1.8
2018-Jun-09 01:30N 34°40' E 135°12'0 0.4
2018-Jun-09 01:00N 34°40' E 135°12'  

Dump ship's entire track history